Overview Statistics Trail Chart Weather Telemetry Raw packets
 

This is the latest recevied weather packets stored in our database for station/object KC1HBM. If no packets are shown the sender has not sent any weather packets the latest 10 day(s).

<< 103 104 105 106 107 108 109 >>
Time Temp. Humidity Pressure Rain* Wind** Luminosity Snow
1787840517 24.44° C 80% 1015.6 hPa 0 mm - 448 W/m² -
1787840213 25° C 76% 1015.6 hPa 0 mm - 379 W/m² -
1787839912 25° C 79% 1015.5 hPa 0 mm - 429 W/m² -
1787839608 25° C 80% 1015.6 hPa 0 mm - 442 W/m² -
1787839302 25° C 79% 1015.5 hPa 0 mm - 475 W/m² -
1787839001 25.56° C 76% 1015.4 hPa 0 mm - 453 W/m² -
1787838700 25° C 79% 1015.4 hPa 0 mm - 447 W/m² -
1787838399 25.56° C 78% 1015.4 hPa 0 mm - 431 W/m² -
1787838099 25.56° C 77% 1015.5 hPa 0 mm - 407 W/m² -
1787837793 26.11° C 76% 1015.6 hPa 0 mm - 362 W/m² -
1787837488 26.11° C 76% 1015.6 hPa 0 mm - 395 W/m² -
1787837182 26.67° C 74% 1015.5 hPa 0 mm - 393 W/m² -
1787836881 26.11° C 75% 1015.7 hPa 0 mm - 353 W/m² -
1787836577 25° C 78% 1015.8 hPa 0 mm - 366 W/m² -
1787836276 25° C 79% 1015.8 hPa 0 mm - 339 W/m² -
1787835972 23.89° C 82% 1015.6 hPa 0 mm - 301 W/m² -
1787835668 22.78° C 83% 1015.7 hPa 0 mm - 314 W/m² -
1787835362 22.22° C 87% 1015.8 hPa 0 mm - 297 W/m² -
1787835057 22.22° C 86% 1015.8 hPa 0 mm - 276 W/m² -
1787834756 22.22° C 86% 1015.9 hPa 0 mm - 241 W/m² -
1787834451 22.22° C 86% 1015.7 hPa 0 mm - 264 W/m² -
1787834147 21.11° C 90% 1015.7 hPa 0 mm - 251 W/m² -
1787833842 21.11° C 90% 1016 hPa 0 mm - 212 W/m² -
1787833537 21.11° C 92% 1015.8 hPa 0 mm - 213 W/m² -
1787833233 20.56° C 94% 1016 hPa 0 mm - 201 W/m² -

* Rain latest hour (hover to see other rain measurements)
** Current wind speed in m/s (hover to see current wind gust speed)